Time;durP1;ratioP1;P1;durP2;ratioP2;P2;SDS_P1;SDS_P2;PMS_P1;PMS_P2;Temp;Humidity;BMP_temperature;BMP_pressure;BME280_temperature;BME280_humidity;BME280_pressure;Samples;Min_cycle;Max_cycle;Signal;HPM_P1;HPM_P2
2022/01/05 00:01:59;;;;;;;3.28;0.80;;;;;;;20.23;35.21;100143.31;7312230;19;131030;-62
2022/01/05 00:04:26;;;;;;;3.47;0.95;;;;;;;20.22;35.62;100152.75;7309759;19;129083;-62
2022/01/05 00:06:53;;;;;;;3.85;1.02;;;;;;;20.20;35.20;100148.59;7313292;19;129163;-62
2022/01/05 00:09:19;;;;;;;4.40;1.05;;;;;;;20.19;35.37;100161.63;7305834;19;132240;-63
2022/01/05 00:11:46;;;;;;;2.53;1.00;;;;;;;20.18;35.25;100168.31;7310965;19;131290;-62
2022/01/05 00:14:13;;;;;;;3.25;0.80;;;;;;;20.17;35.70;100168.56;7306398;19;129065;-61
2022/01/05 00:16:40;;;;;;;2.55;0.90;;;;;;;20.17;35.60;100163.88;7308502;19;129968;-62
2022/01/05 00:19:07;;;;;;;4.20;1.05;;;;;;;20.15;35.47;100152.19;7308132;19;131034;-61
2022/01/05 00:21:33;;;;;;;2.75;1.10;;;;;;;20.16;35.65;100150.22;7307354;19;131066;-62
2022/01/05 00:24:00;;;;;;;5.63;1.02;;;;;;;20.14;35.15;100150.53;7310504;19;129052;-62
2022/01/05 00:26:27;;;;;;;3.95;1.45;;;;;;;20.13;35.20;100154.41;7307499;19;129680;-62
2022/01/05 00:28:55;;;;;;;4.60;1.10;;;;;;;20.11;35.70;100148.28;7310168;19;133193;-62
2022/01/05 00:31:22;;;;;;;3.47;1.10;;;;;;;20.11;35.23;100157.47;7306123;19;131285;-62
2022/01/05 00:33:50;;;;;;;6.35;1.55;;;;;;;20.10;35.78;100166.06;7311091;19;129788;-61
2022/01/05 00:36:17;;;;;;;5.97;0.90;;;;;;;20.09;35.61;100164.38;7308788;19;128898;-62
2022/01/05 00:38:45;;;;;;;2.97;0.90;;;;;;;20.09;35.56;100169.94;7307989;19;132185;-63
2022/01/05 00:41:12;;;;;;;9.07;1.52;;;;;;;20.07;35.41;100175.78;7309440;19;131104;-62
2022/01/05 00:43:40;;;;;;;3.15;0.95;;;;;;;20.07;35.85;100180.47;7307549;19;128945;-62
2022/01/05 00:46:07;;;;;;;2.92;1.10;;;;;;;20.06;35.68;100178.84;7311347;19;129062;-61
2022/01/05 00:48:35;;;;;;;4.22;1.15;;;;;;;20.05;35.54;100178.00;7306324;19;132026;-62
2022/01/05 00:51:03;;;;;;;5.20;1.00;;;;;;;20.04;35.70;100172.72;7310078;19;131019;-62
2022/01/05 00:53:30;;;;;;;3.47;1.02;;;;;;;20.02;35.42;100175.75;7305855;19;129494;-63
2022/01/05 00:55:57;;;;;;;4.65;0.90;;;;;;;20.01;35.66;100179.63;7310455;19;130087;-62
2022/01/05 00:58:24;;;;;;;6.20;1.35;;;;;;;20.00;35.50;100175.19;7305516;19;131051;-62
2022/01/05 01:00:51;;;;;;;4.20;0.95;;;;;;;19.98;35.58;100181.00;7308619;19;131881;-62
2022/01/05 01:03:18;;;;;;;4.13;0.98;;;;;;;19.97;35.78;100184.88;7312576;19;130955;-62
2022/01/05 01:05:45;;;;;;;2.70;0.90;;;;;;;19.96;35.95;100177.66;7314261;19;129291;-62
2022/01/05 01:08:12;;;;;;;5.30;1.30;;;;;;;19.95;35.83;100181.53;7316377;19;132021;-62
2022/01/05 01:10:39;;;;;;;3.45;1.05;;;;;;;19.93;35.82;100175.44;7314074;19;133258;-62
2022/01/05 01:13:06;;;;;;;3.20;1.10;;;;;;;19.93;35.88;100183.78;7316264;19;130158;-62
2022/01/05 01:15:32;;;;;;;4.35;0.93;;;;;;;19.92;35.88;100190.44;7312087;19;128940;-62
2022/01/05 01:17:59;;;;;;;4.88;1.27;;;;;;;19.91;35.96;100193.47;7315679;19;131506;-62
2022/01/05 01:20:26;;;;;;;4.07;1.33;;;;;;;19.90;36.00;100184.31;7312068;19;131868;-62
2022/01/05 01:22:53;;;;;;;4.30;0.80;;;;;;;19.88;36.09;100188.47;7315982;19;130750;-62
2022/01/05 01:25:20;;;;;;;5.97;1.33;;;;;;;19.88;35.84;100189.31;7313055;19;129486;-62
2022/01/05 01:27:47;;;;;;;5.53;1.15;;;;;;;19.87;36.14;100193.19;7313435;19;131934;-63
2022/01/05 01:30:13;;;;;;;5.32;1.20;;;;;;;19.86;36.14;100188.72;7314952;19;132125;-62
2022/01/05 01:32:41;;;;;;;5.80;0.95;;;;;;;19.85;36.03;100181.50;7313218;19;128670;-62
2022/01/05 01:35:08;;;;;;;2.47;1.00;;;;;;;19.83;35.94;100192.91;7316938;19;129050;-62
2022/01/05 01:37:35;;;;;;;4.68;1.23;;;;;;;19.83;35.71;100198.44;7311949;19;131328;-63
2022/01/05 01:40:04;;;;;;;4.97;1.20;;;;;;;19.82;35.74;100198.69;7314420;19;131517;-62
2022/01/05 01:42:31;;;;;;;4.25;1.10;;;;;;;19.81;35.73;100191.50;7313373;19;129120;-62
2022/01/05 01:44:58;;;;;;;6.03;1.00;;;;;;;19.81;35.80;100210.94;7312667;19;128781;-62
2022/01/05 01:47:25;;;;;;;3.78;1.13;;;;;;;19.79;36.02;100210.38;7310689;19;132018;-62
2022/01/05 01:49:51;;;;;;;7.00;1.25;;;;;;;19.78;35.84;100211.47;7314329;19;130918;-62
2022/01/05 01:52:18;;;;;;;2.85;1.10;;;;;;;19.78;36.08;100214.25;7316380;19;128968;-62
2022/01/05 01:54:46;;;;;;;4.88;1.10;;;;;;;19.75;35.85;100214.78;7312771;19;130013;-62
2022/01/05 01:57:14;;;;;;;3.92;1.05;;;;;;;19.74;36.20;100219.50;7315568;19;131140;-62
2022/01/05 01:59:44;;;;;;;7.10;1.48;;;;;;;19.75;36.30;100225.88;7311545;19;131125;-62
2022/01/05 02:02:11;;;;;;;3.25;1.20;;;;;;;19.74;36.09;100216.75;7315537;19;129864;-62
2022/01/05 02:04:41;;;;;;;4.57;0.88;;;;;;;19.72;36.21;100216.16;7310961;19;129032;-62
2022/01/05 02:07:08;;;;;;;4.90;1.10;;;;;;;19.72;36.27;100215.31;7314527;19;130991;-63
2022/01/05 02:09:35;;;;;;;4.35;0.82;;;;;;;19.69;36.28;100211.97;7311331;19;132514;-62
2022/01/05 02:12:07;;;;;;;5.60;1.10;;;;;;;19.68;35.84;100221.44;7313046;19;130772;-62
2022/01/05 02:14:34;;;;;;;3.83;1.17;;;;;;;19.67;35.88;100219.75;7311956;19;128997;-62
2022/01/05 02:17:10;;;;;;;4.28;1.80;;;;;;;19.66;36.02;100206.13;7311144;19;131117;-62
2022/01/05 02:19:37;;;;;;;4.40;1.00;;;;;;;19.65;36.04;100224.75;7313415;19;131065;-63
2022/01/05 02:22:04;;;;;;;2.97;1.17;;;;;;;19.64;36.04;100223.06;7310537;19;129368;-62
2022/01/05 02:24:31;;;;;;;4.20;1.10;;;;;;;19.64;35.78;100211.97;7314832;19;132297;-62
2022/01/05 02:26:58;;;;;;;3.17;1.15;;;;;;;19.64;36.10;100216.66;7310318;19;131967;-62
2022/01/05 02:29:24;;;;;;;3.33;1.20;;;;;;;19.62;35.89;100216.94;7313228;19;130947;-62
2022/01/05 02:31:51;;;;;;;6.20;1.35;;;;;;;19.61;35.82;100218.06;7313141;19;129745;-62
2022/01/05 02:34:18;;;;;;;4.05;1.13;;;;;;;19.62;35.99;100221.69;7312143;19;129020;-62
2022/01/05 02:36:45;;;;;;;4.38;1.10;;;;;;;19.60;36.04;100219.16;7314282;19;131832;-62
2022/01/05 02:39:11;;;;;;;2.78;0.90;;;;;;;19.59;36.19;100223.03;7312049;19;131510;-62
2022/01/05 02:41:38;;;;;;;3.35;1.20;;;;;;;19.58;36.00;100226.09;7313100;19;129152;-62
2022/01/05 02:44:05;;;;;;;4.53;1.20;;;;;;;19.56;36.31;100237.47;7310880;19;128929;-62
2022/01/05 02:46:32;;;;;;;5.32;1.67;;;;;;;19.56;36.22;100243.03;7314307;19;132524;-62
2022/01/05 02:48:59;;;;;;;4.13;1.17;;;;;;;19.55;36.13;100241.34;7310904;19;131004;-62
2022/01/05 02:51:26;;;;;;;3.75;1.27;;;;;;;19.53;35.97;100244.38;7312509;19;130661;-62
2022/01/05 02:53:53;;;;;;;4.07;1.15;;;;;;;19.53;36.29;100240.78;7310043;19;129092;-62
2022/01/05 02:56:19;;;;;;;4.85;1.23;;;;;;;19.52;36.16;100244.66;7312504;19;131053;-63
2022/01/05 02:58:46;;;;;;;5.03;1.08;;;;;;;19.51;36.18;100242.97;7312938;19;131243;-62
2022/01/05 03:01:13;;;;;;;4.78;1.38;;;;;;;19.50;35.74;100258.81;7309637;19;128965;-62
2022/01/05 03:03:40;;;;;;;5.30;1.00;;;;;;;19.50;36.00;100257.94;7312979;19;130800;-62
2022/01/05 03:06:07;;;;;;;4.72;1.38;;;;;;;19.48;35.93;100261.00;7310383;19;131153;-62
2022/01/05 03:08:34;;;;;;;6.38;1.30;;;;;;;19.48;36.25;100254.59;7313392;19;131865;-61
2022/01/05 03:11:00;;;;;;;4.28;1.10;;;;;;;19.47;36.25;100264.88;7309370;19;129725;-62
2022/01/05 03:13:27;;;;;;;4.78;1.23;;;;;;;19.46;35.84;100251.25;7313001;19;129742;-62
2022/01/05 03:15:55;;;;;;;7.88;1.30;;;;;;;19.47;36.34;100264.03;7309184;19;131622;-62
2022/01/05 03:18:22;;;;;;;3.28;1.17;;;;;;;19.45;36.22;100267.09;7311006;19;132030;-63
2022/01/05 03:20:49;;;;;;;3.90;1.27;;;;;;;19.44;35.85;100278.47;7310314;19;129453;-62
2022/01/05 03:23:16;;;;;;;8.25;1.50;;;;;;;19.43;35.80;100282.34;7310303;19;129046;-62
2022/01/05 03:25:43;;;;;;;5.68;1.05;;;;;;;19.43;35.79;100285.94;7311679;19;131025;-62
2022/01/05 03:28:10;;;;;;;3.50;1.27;;;;;;;19.43;36.06;100293.44;7309435;19;131006;-63
2022/01/05 03:30:37;;;;;;;4.38;1.27;;;;;;;19.41;36.04;100284.53;7312568;19;131165;-62
2022/01/05 03:33:19;;;;;;;5.25;1.17;;;;;;;19.40;35.90;100292.00;7307565;19;132942;-62
2022/01/05 03:35:46;;;;;;;4.50;1.10;;;;;;;19.39;35.82;100298.66;7311817;19;131113;-62
2022/01/05 03:38:16;;;;;;;3.53;1.08;;;;;;;19.38;36.24;100292.28;7308723;19;132305;-62
2022/01/05 03:40:45;;;;;;;5.68;1.67;;;;;;;19.37;35.87;100298.94;7309356;19;130340;-62
2022/01/05 03:43:12;;;;;;;6.40;1.60;;;;;;;19.35;35.78;100295.59;7311760;19;128923;-62
2022/01/05 03:45:40;;;;;;;6.63;1.33;;;;;;;19.36;36.04;100301.97;7308228;19;131128;-62
2022/01/05 03:48:10;;;;;;;7.57;1.35;;;;;;;19.36;35.94;100316.66;7311871;19;131232;-62
2022/01/05 03:50:37;;;;;;;3.20;1.13;;;;;;;19.34;36.22;100321.63;7308328;19;129347;-62
2022/01/05 03:53:06;;;;;;;4.15;1.45;;;;;;;19.35;36.17;100316.94;7311788;19;128749;-62
2022/01/05 03:55:33;;;;;;;5.43;1.15;;;;;;;19.35;36.19;100316.94;7308785;19;131291;-62
2022/01/05 03:58:01;;;;;;;3.83;1.23;;;;;;;19.34;36.01;100320.81;7311179;19;131122;-62
2022/01/05 04:00:29;;;;;;;2.97;0.90;;;;;;;19.34;35.88;100326.38;7308273;19;129861;-62
2022/01/05 04:03:00;;;;;;;5.03;1.00;;;;;;;19.32;35.70;100334.13;7310313;19;131378;-62
2022/01/05 04:05:28;;;;;;;5.15;1.05;;;;;;;19.30;36.06;100328.84;7312006;19;131364;-62
2022/01/05 04:07:56;;;;;;;4.03;1.13;;;;;;;19.31;35.93;100327.75;7308348;19;130907;-62
2022/01/05 04:10:23;;;;;;;5.97;1.35;;;;;;;19.29;35.91;100329.09;7312367;19;128975;-62
2022/01/05 04:12:50;;;;;;;3.80;0.95;;;;;;;19.29;36.15;100324.41;7307797;19;128990;-62
2022/01/05 04:15:18;;;;;;;5.88;1.33;;;;;;;19.28;35.67;100325.50;7311415;19;131158;-62
2022/01/05 04:17:45;;;;;;;4.50;1.10;;;;;;;19.27;35.63;100326.59;7308549;19;132141;-62
2022/01/05 04:20:13;;;;;;;3.00;1.25;;;;;;;19.27;35.75;100336.84;7310097;19;128849;-63
2022/01/05 04:22:40;;;;;;;4.47;1.23;;;;;;;19.26;35.66;100341.56;7308853;19;129063;-62
2022/01/05 04:25:08;;;;;;;2.55;0.80;;;;;;;19.24;36.08;100335.44;7309612;19;131643;-63
2022/01/05 04:27:34;;;;;;;4.70;1.27;;;;;;;19.24;36.00;100338.22;7310760;19;131054;-62
2022/01/05 04:30:03;;;;;;;2.92;1.20;;;;;;;19.22;35.77;100337.63;7306443;19;128705;-62
2022/01/05 04:32:30;;;;;;;5.20;1.38;;;;;;;19.22;36.04;100340.41;7309513;19;128909;-62
2022/01/05 04:35:16;;;;;;;4.53;1.60;;;;;;;19.20;35.77;100343.41;7301881;19;133486;-62
2022/01/05 04:37:53;;;;;;;4.55;1.60;;;;;;;19.20;35.83;100345.38;7311754;19;131385;-63
2022/01/05 04:40:20;;;;;;;4.00;1.38;;;;;;;19.20;35.63;100348.16;7315142;19;133140;-62
2022/01/05 04:42:46;;;;;;;4.85;1.27;;;;;;;19.19;35.88;100349.25;7315628;19;129083;-62
2022/01/05 04:45:13;;;;;;;2.83;1.20;;;;;;;19.18;35.70;100350.34;7316314;19;131336;-62
2022/01/05 04:47:40;;;;;;;3.90;1.38;;;;;;;19.18;35.71;100353.13;7312446;19;131845;-62
2022/01/05 04:50:07;;;;;;;3.35;1.27;;;;;;;19.16;36.04;100352.53;7315853;19;128691;-62
2022/01/05 04:52:34;;;;;;;3.58;1.38;;;;;;;19.16;35.81;100353.34;7312818;19;129485;-62
2022/01/05 04:55:01;;;;;;;5.30;1.40;;;;;;;19.14;35.94;100361.09;7317263;19;131861;-62
2022/01/05 04:57:28;;;;;;;4.15;1.30;;;;;;;19.14;35.94;100354.72;7312252;19;131853;-62
2022/01/05 04:59:55;;;;;;;3.25;1.23;;;;;;;19.13;36.08;100353.91;7316582;19;129378;-63
2022/01/05 05:02:22;;;;;;;4.55;1.10;;;;;;;19.14;35.89;100357.50;7314067;19;130526;-62
2022/01/05 05:04:50;;;;;;;4.72;1.33;;;;;;;19.14;35.99;100363.03;7315104;19;131415;-62
2022/01/05 05:07:17;;;;;;;3.30;1.08;;;;;;;19.14;35.64;100360.28;7316734;19;131158;-62
2022/01/05 05:09:44;;;;;;;7.18;1.67;;;;;;;19.13;35.80;100367.78;7315704;19;137529;-62
2022/01/05 05:12:11;;;;;;;4.63;1.40;;;;;;;19.13;35.68;100364.16;7318180;19;128805;-62
2022/01/05 05:14:37;;;;;;;3.20;1.23;;;;;;;19.12;35.37;100360.56;7314962;19;131148;-62
2022/01/05 05:17:05;;;;;;;8.48;1.67;;;;;;;19.12;35.80;100368.00;7317477;19;131059;-62
2022/01/05 05:19:32;;;;;;;3.72;1.15;;;;;;;19.11;35.54;100367.19;7313917;19;128893;-62
2022/01/05 05:21:58;;;;;;;3.05;1.10;;;;;;;19.11;35.47;100364.41;7314647;19;129065;-62
2022/01/05 05:24:25;;;;;;;3.78;1.30;;;;;;;19.11;35.44;100367.19;7314539;19;131269;-62
2022/01/05 05:26:52;;;;;;;2.92;1.30;;;;;;;19.11;35.31;100366.34;7316888;19;131880;-62
2022/01/05 05:29:18;;;;;;;5.57;1.20;;;;;;;19.11;35.43;100366.34;7313436;19;128874;-62
2022/01/05 05:31:45;;;;;;;4.57;1.38;;;;;;;19.11;35.65;100374.66;7315502;19;128823;-62
2022/01/05 05:34:12;;;;;;;4.68;1.20;;;;;;;19.10;35.46;100378.53;7317359;19;131223;-62
2022/01/05 05:36:38;;;;;;;5.72;1.63;;;;;;;19.09;35.32;100383.25;7314640;19;130974;-62
2022/01/05 05:39:05;;;;;;;4.15;1.60;;;;;;;19.10;35.16;100372.97;7317226;19;128959;-62
2022/01/05 05:41:32;;;;;;;3.47;1.30;;;;;;;19.10;35.13;100376.59;7313149;19;131777;-62
2022/01/05 05:43:58;;;;;;;3.78;1.20;;;;;;;19.10;35.65;100372.97;7315206;19;132170;-63
2022/01/05 05:46:25;;;;;;;3.78;1.17;;;;;;;19.10;35.57;100373.84;7311249;19;131142;-62
2022/01/05 05:48:52;;;;;;;4.07;1.20;;;;;;;19.08;35.14;100374.06;7313158;19;129106;-62
2022/01/05 05:51:19;;;;;;;4.80;1.65;;;;;;;19.08;35.41;100374.06;7314931;19;129371;-62
2022/01/05 05:53:46;;;;;;;3.35;1.10;;;;;;;19.08;35.49;100385.16;7314268;19;131257;-61
2022/01/05 05:56:12;;;;;;;2.90;1.10;;;;;;;19.06;35.36;100376.31;7316735;19;131193;-62
2022/01/05 05:58:39;;;;;;;4.60;1.27;;;;;;;19.06;35.19;100387.41;7312769;19;131166;-62
2022/01/05 06:01:06;;;;;;;2.88;1.38;;;;;;;19.06;35.13;100387.41;7313997;19;129085;-62
2022/01/05 06:03:33;;;;;;;3.15;1.27;;;;;;;19.06;35.24;100389.31;7310773;19;131720;-62
2022/01/05 06:05:59;;;;;;;3.13;1.25;;;;;;;19.05;35.14;100396.81;7315242;19;131115;-62
2022/01/05 06:08:26;;;;;;;5.47;1.30;;;;;;;19.04;35.42;100395.13;7310127;19;128956;-62
2022/01/05 06:10:53;;;;;;;4.60;1.40;;;;;;;19.04;35.14;100400.69;7314611;19;129571;-62
2022/01/05 06:13:20;;;;;;;4.28;1.50;;;;;;;19.04;35.25;100405.38;7311892;19;131900;-62
2022/01/05 06:15:46;;;;;;;4.85;1.40;;;;;;;19.02;35.34;100408.41;7312684;19;132003;-62
2022/01/05 06:18:13;;;;;;;4.45;1.15;;;;;;;19.01;35.46;100403.97;7311762;19;128918;-61
2022/01/05 06:20:40;;;;;;;4.47;1.25;;;;;;;19.00;35.21;100405.06;7307312;19;130694;-62
2022/01/05 06:23:06;;;;;;;3.45;1.20;;;;;;;19.00;35.43;100407.00;7306200;19;131436;-62
2022/01/05 06:25:33;;;;;;;5.55;1.75;;;;;;;18.98;35.43;100406.44;7307805;19;131754;-62
2022/01/05 06:28:00;;;;;;;4.30;1.42;;;;;;;18.98;35.43;100411.97;7314102;19;129081;-62
2022/01/05 06:30:27;;;;;;;3.03;1.10;;;;;;;18.98;35.38;100409.19;7309121;19;129078;-62
2022/01/05 06:32:53;;;;;;;5.68;1.83;;;;;;;18.97;35.26;100427.75;7310952;19;132127;-63
2022/01/05 06:35:23;;;;;;;3.10;1.30;;;;;;;18.96;35.43;100417.75;7309503;19;132490;-62
2022/01/05 06:37:53;;;;;;;4.45;1.60;;;;;;;18.95;35.38;100424.44;7313674;19;129041;-62
2022/01/05 06:40:21;;;;;;;3.95;1.30;;;;;;;18.94;34.88;100427.44;7313403;19;129028;-62
2022/01/05 06:42:48;;;;;;;5.28;1.48;;;;;;;18.93;35.13;100429.38;7310208;19;131318;-62
2022/01/05 06:45:14;;;;;;;6.85;1.40;;;;;;;18.95;35.08;100441.06;7313266;19;131086;-62
2022/01/05 06:47:41;;;;;;;5.65;1.38;;;;;;;19.03;34.72;100439.72;7311477;19;130010;-63
2022/01/05 06:50:10;;;;;;;4.05;1.40;;;;;;;19.15;34.96;100428.50;7314657;19;128949;-62
2022/01/05 06:52:37;;;;;;;5.60;1.33;;;;;;;19.33;34.61;100436.47;7311164;19;132174;-62
2022/01/05 06:55:04;;;;;;;2.97;1.25;;;;;;;19.58;34.40;100431.41;7314399;19;132018;-62
2022/01/05 06:57:31;;;;;;;5.05;1.35;;;;;;;19.83;33.71;100439.09;7314849;19;129102;-62
2022/01/05 06:59:58;;;;;;;7.68;1.58;;;;;;;20.08;33.46;100437.63;7312793;19;128944;-62
2022/01/05 07:02:25;;;;;;;7.40;1.65;;;;;;;20.31;33.37;100441.09;7312238;19;131156;-62
2022/01/05 07:04:51;;;;;;;3.88;1.35;;;;;;;20.51;32.99;100437.56;7311632;19;131006;-62
2022/01/05 07:07:18;;;;;;;4.40;1.60;;;;;;;20.69;32.56;100442.66;7315140;19;129706;-62
2022/01/05 07:09:45;;;;;;;3.60;1.15;;;;;;;20.84;32.43;100453.00;7311901;19;131772;-62
2022/01/05 07:12:12;;;;;;;4.53;1.63;;;;;;;20.96;32.63;100455.56;7315536;19;131206;-62
2022/01/05 07:14:39;;;;;;;4.72;1.70;;;;;;;21.05;32.47;100458.63;7309246;19;131763;-62
2022/01/05 07:17:06;;;;;;;4.85;1.40;;;;;;;21.10;31.99;100461.44;7315003;19;128908;-63
2022/01/05 07:19:33;;;;;;;5.00;1.20;;;;;;;21.11;31.81;100451.97;7311990;19;129145;-62
2022/01/05 07:21:59;;;;;;;5.30;1.70;;;;;;;21.11;31.99;100456.72;7312228;19;132379;-63
2022/01/05 07:24:26;;;;;;;7.60;1.70;;;;;;;21.10;31.65;100472.56;7311207;19;131101;-62
2022/01/05 07:26:53;;;;;;;4.78;1.42;;;;;;;21.07;31.93;100473.09;7312322;19;128895;-62
2022/01/05 07:29:20;;;;;;;5.50;1.45;;;;;;;21.05;31.98;100478.09;7313286;19;128955;-62
2022/01/05 07:31:46;;;;;;;3.47;1.52;;;;;;;21.00;32.08;100483.66;7310374;19;131172;-63
2022/01/05 07:34:14;;;;;;;8.20;1.70;;;;;;;20.98;32.50;100494.22;7314142;19;131224;-62
2022/01/05 07:36:41;;;;;;;4.43;1.38;;;;;;;20.90;32.32;100502.00;7311568;19;128965;-62
2022/01/05 07:39:08;;;;;;;2.63;0.90;;;;;;;20.85;32.17;100501.97;7314942;19;128885;-62
2022/01/05 07:41:36;;;;;;;4.13;1.38;;;;;;;20.80;32.44;100513.03;7308207;19;132541;-62
2022/01/05 07:44:05;;;;;;;3.60;1.13;;;;;;;20.75;32.46;100518.56;7312718;19;130988;-62
2022/01/05 07:46:32;;;;;;;5.25;1.40;;;;;;;20.69;31.98;100522.41;7310616;19;129108;-62
2022/01/05 07:48:58;;;;;;;5.50;1.65;;;;;;;20.64;32.09;100525.19;7311566;19;131179;-62
2022/01/05 07:51:25;;;;;;;4.35;1.38;;;;;;;20.58;32.49;100527.91;7312673;19;131897;-62
2022/01/05 07:53:52;;;;;;;3.88;1.20;;;;;;;20.53;32.29;100530.69;7311239;19;135250;-62
2022/01/05 07:56:18;;;;;;;6.00;1.52;;;;;;;20.48;32.30;100538.16;7312661;19;128844;-62
2022/01/05 07:58:45;;;;;;;3.90;1.40;;;;;;;20.42;32.48;100538.13;7308898;19;130041;-62
2022/01/05 08:01:12;;;;;;;6.43;1.63;;;;;;;20.39;32.57;100546.16;7311554;19;131689;-62
2022/01/05 08:03:39;;;;;;;4.40;1.20;;;;;;;20.34;32.59;100537.78;7307236;19;131159;-62
2022/01/05 08:06:20;;;;;;;5.72;1.65;;;;;;;20.29;32.68;100536.66;7312325;19;129115;-62
2022/01/05 08:08:47;;;;;;;6.78;1.77;;;;;;;20.24;32.49;100539.38;7308966;19;129587;-62
2022/01/05 08:11:14;;;;;;;3.40;1.23;;;;;;;20.24;32.74;100556.06;7310554;19;131937;-63
2022/01/05 08:13:41;;;;;;;7.03;1.83;;;;;;;20.19;32.91;100553.22;7317677;19;131980;-62
2022/01/05 08:16:08;;;;;;;11.18;1.63;;;;;;;20.20;32.49;100565.19;7315405;19;128979;-62
2022/01/05 08:18:35;;;;;;;6.57;1.80;;;;;;;20.15;32.37;100563.22;7318802;19;128797;-62
2022/01/05 08:21:02;;;;;;;6.75;1.80;;;;;;;20.16;31.84;100559.34;7316256;19;131938;-62
2022/01/05 08:23:28;;;;;;;5.75;1.75;;;;;;;20.18;32.17;100562.69;7319167;19;131951;-62
2022/01/05 08:25:55;;;;;;;5.38;1.50;;;;;;;20.23;32.09;100553.56;7314185;19;129082;-63
2022/01/05 08:28:22;;;;;;;5.40;1.50;;;;;;;20.29;31.89;100558.88;7317940;19;129425;-62
2022/01/05 08:30:49;;;;;;;4.57;1.70;;;;;;;20.37;31.71;100554.75;7315674;19;131340;-62
2022/01/05 08:33:17;;;;;;;5.25;1.60;;;;;;;20.46;31.74;100580.09;7316911;19;131557;-63
2022/01/05 08:35:45;;;;;;;6.57;1.63;;;;;;;20.53;32.05;100566.81;7318196;19;129100;-62
2022/01/05 08:38:13;;;;;;;7.32;1.38;;;;;;;20.60;31.79;100570.19;7315420;19;129042;-62
2022/01/05 08:40:40;;;;;;;6.60;1.80;;;;;;;20.68;31.54;100574.41;7318083;19;131837;-62
2022/01/05 08:43:11;;;;;;;6.35;1.40;;;;;;;20.75;31.82;100588.06;7314174;19;131039;-62
2022/01/05 08:45:39;;;;;;;8.68;1.52;;;;;;;20.80;31.64;100582.53;7318858;19;129378;-62
2022/01/05 08:48:11;;;;;;;6.72;1.50;;;;;;;20.85;31.55;100595.66;7314001;19;129863;-62
2022/01/05 08:50:39;;;;;;;3.17;1.50;;;;;;;20.89;31.52;100596.78;7317580;19;131319;-62
2022/01/05 08:53:06;;;;;;;4.80;1.80;;;;;;;20.96;31.53;100593.75;7313893;19;131936;-62
2022/01/05 08:55:37;;;;;;;5.63;1.63;;;;;;;21.00;31.68;100594.91;7314581;19;131015;-62
2022/01/05 08:58:05;;;;;;;7.05;1.90;;;;;;;21.01;31.20;100602.13;7318110;19;129750;-62
2022/01/05 09:00:32;;;;;;;6.80;1.75;;;;;;;21.05;31.46;100619.94;7314871;19;131060;-62
2022/01/05 09:03:00;;;;;;;5.20;2.03;;;;;;;21.07;31.16;100614.94;7317058;19;131279;-62
2022/01/05 09:05:27;;;;;;;7.45;1.80;;;;;;;21.09;31.18;100615.50;7315466;19;128954;-62
2022/01/05 09:07:54;;;;;;;10.60;1.80;;;;;;;21.10;31.21;100619.16;7319428;19;128928;-62
2022/01/05 09:10:21;;;;;;;7.55;1.90;;;;;;;21.11;31.00;100618.88;7314836;19;132110;-62
2022/01/05 09:12:48;;;;;;;9.70;2.00;;;;;;;21.14;30.75;100623.91;7317787;19;131745;-62
2022/01/05 09:15:15;;;;;;;5.82;1.63;;;;;;;21.14;30.73;100611.91;7315346;19;129176;-62
2022/01/05 09:17:41;;;;;;;7.38;2.08;;;;;;;21.15;30.70;100614.44;7316229;19;128952;-62
2022/01/05 09:20:09;;;;;;;9.63;2.55;;;;;;;21.17;31.20;100628.91;7317334;19;130836;-62
2022/01/05 09:22:38;;;;;;;9.00;2.35;;;;;;;21.18;31.11;100625.00;7314865;19;132007;-62
2022/01/05 09:25:11;;;;;;;7.80;1.92;;;;;;;21.20;30.65;100630.31;7317645;19;130112;-61
2022/01/05 09:27:39;;;;;;;5.75;2.08;;;;;;;21.21;30.65;100624.47;7314439;19;129098;-62
2022/01/05 09:30:09;;;;;;;6.70;1.75;;;;;;;21.23;30.55;100621.44;7316549;19;131350;-63
2022/01/05 09:32:36;;;;;;;9.13;2.33;;;;;;;21.22;31.05;100626.16;7314668;19;131156;-62
2022/01/05 09:35:04;;;;;;;11.52;2.05;;;;;;;21.25;31.07;100629.50;7317728;19;128778;-62
2022/01/05 09:37:35;;;;;;;7.70;2.08;;;;;;;21.24;30.84;100647.31;7315347;19;129407;-62
2022/01/05 09:42:49;;;;;;;6.63;1.80;;;;;;;21.26;30.68;100645.09;7316544;19;131351;-62
2022/01/05 09:45:15;;;;;;;6.57;1.80;;;;;;;21.26;30.81;100636.75;7314261;19;129508;-62
2022/01/05 09:47:50;;;;;;;5.00;1.80;;;;;;;21.27;31.01;100643.97;7317568;19;130143;-62
2022/01/05 09:50:19;;;;;;;8.80;2.22;;;;;;;21.28;30.96;100651.22;7314232;19;131313;-62
2022/01/05 09:52:46;;;;;;;7.55;1.80;;;;;;;21.28;30.68;100654.00;7315924;19;131122;-62
2022/01/05 09:55:15;;;;;;;9.30;1.90;;;;;;;21.28;31.05;100663.19;7313737;19;131017;-62
2022/01/05 09:57:45;;;;;;;6.75;2.22;;;;;;;21.29;30.71;100664.03;7315458;19;129911;-62
2022/01/05 10:00:17;;;;;;;7.80;2.20;;;;;;;21.32;30.90;100663.47;7315985;19;131863;-62
2022/01/05 10:02:46;;;;;;;10.43;2.13;;;;;;;21.39;30.62;100666.00;7312752;19;132001;-62
2022/01/05 10:05:16;;;;;;;6.57;2.13;;;;;;;21.45;30.42;100665.75;7316655;19;129027;-63
2022/01/05 10:07:43;;;;;;;5.10;2.05;;;;;;;21.52;30.34;100674.75;7311780;19;130502;-63
2022/01/05 10:10:10;;;;;;;8.63;2.10;;;;;;;21.58;29.74;100678.38;7308530;19;131239;-63
2022/01/05 10:12:37;;;;;;;8.50;1.98;;;;;;;21.59;29.79;100690.34;7311192;19;132266;-62
2022/01/05 10:15:09;;;;;;;6.63;1.98;;;;;;;21.63;29.75;100697.03;7311755;19;129672;-63
2022/01/05 10:17:38;;;;;;;8.32;2.08;;;;;;;21.69;29.85;100692.31;7309699;19;132847;-63
2022/01/05 10:20:08;;;;;;;7.15;2.00;;;;;;;21.75;29.34;100706.00;7312064;19;131935;-64
2022/01/05 10:22:36;;;;;;;11.68;2.15;;;;;;;21.82;29.09;100702.97;7314234;19;131172;-64
2022/01/05 10:25:13;;;;;;;8.02;2.15;;;;;;;21.91;29.06;100706.06;7310166;19;129414;-64
2022/01/05 10:27:39;;;;;;;6.07;2.22;;;;;;;21.96;29.04;100709.69;7312739;19;130401;-63
2022/01/05 10:30:11;;;;;;;9.07;2.17;;;;;;;22.06;29.21;100711.63;7311384;19;131296;-63
2022/01/05 10:32:38;;;;;;;10.50;2.20;;;;;;;22.15;28.78;100705.53;7315148;19;131186;-62
2022/01/05 10:35:09;;;;;;;9.77;2.33;;;;;;;22.17;28.48;100698.56;7299036;19;130951;-63
2022/01/05 10:37:40;;;;;;;7.15;2.25;;;;;;;22.22;28.65;100704.16;7315398;19;130237;-64
2022/01/05 10:40:20;;;;;;;10.70;2.45;;;;;;;22.30;28.51;100702.78;7301125;19;131474;-62
2022/01/05 10:42:50;;;;;;;6.40;2.20;;;;;;;22.35;28.78;100708.38;7313091;19;131049;-63
2022/01/05 10:45:20;;;;;;;8.80;2.78;;;;;;;22.43;28.79;100720.94;7311742;19;129014;-63
2022/01/05 10:48:08;;;;;;;8.05;2.53;;;;;;;22.48;28.45;100723.72;7312075;19;128732;-62
2022/01/05 10:50:36;;;;;;;7.47;2.38;;;;;;;22.51;28.57;100730.69;7315263;19;131264;-64
2022/01/05 10:53:04;;;;;;;5.90;2.10;;;;;;;22.53;28.42;100736.81;7310837;19;131259;-63
2022/01/05 10:55:37;;;;;;;7.82;2.28;;;;;;;22.52;28.72;100727.63;7314431;19;128735;-63
2022/01/05 10:58:12;;;;;;;8.20;2.38;;;;;;;22.51;28.70;100739.06;7312305;19;129331;-63
2022/01/05 11:00:44;;;;;;;7.55;2.08;;;;;;;22.52;29.03;100746.31;7313974;19;131332;-63
2022/01/05 11:03:27;;;;;;;7.45;2.20;;;;;;;22.49;28.82;100739.31;7311065;19;131088;-63
2022/01/05 11:06:00;;;;;;;7.78;2.45;;;;;;;22.44;29.06;100745.72;7307359;19;129243;-63
2022/01/05 11:08:29;;;;;;;6.30;2.20;;;;;;;22.39;29.22;100745.75;7314453;19;130766;-62
2022/01/05 11:10:56;;;;;;;6.90;2.10;;;;;;;22.34;29.22;100747.69;7311089;19;131969;-63
2022/01/05 11:13:22;;;;;;;9.45;1.83;;;;;;;22.27;29.02;100751.56;7313297;19;131030;-63
2022/01/05 11:15:56;;;;;;;6.85;2.08;;;;;;;22.20;29.42;100744.53;7309485;19;129868;-63
2022/01/05 11:18:24;;;;;;;8.00;2.38;;;;;;;22.12;29.47;100754.28;7311443;19;129950;-64
2022/01/05 11:20:57;;;;;;;12.00;2.28;;;;;;;22.05;29.27;100759.28;7311221;19;132164;-64
2022/01/05 11:23:29;;;;;;;6.97;2.43;;;;;;;21.95;29.34;100749.78;7312370;19;132220;-63